Time;durP1;ratioP1;P1;durP2;ratioP2;P2;SDS_P1;SDS_P2;PMS_P1;PMS_P2;Temp;Humidity;BMP_temperature;BMP_pressure;BME280_temperature;BME280_humidity;BME280_pressure;Samples;Min_cycle;Max_cycle;Signal;HPM_P1;HPM_P2
2021/12/14 00:01:35;;;;;;;10.57;9.67;;;;;;;22.41;29.91;95338.69;4978730;28;103501;-50
2021/12/14 00:04:13;;;;;;;9.73;8.93;;;;;;;22.42;29.75;95343.72;4973632;28;102777;-49
2021/12/14 00:06:40;;;;;;;9.50;8.70;;;;;;;22.43;29.85;95340.00;4979909;28;102744;-49
2021/12/14 00:09:10;;;;;;;9.50;8.70;;;;;;;22.41;29.81;95350.13;4979548;28;102787;-49
2021/12/14 00:16:50;;;;;;;9.10;8.40;;;;;;;22.41;29.84;95349.34;4977850;28;102717;-49
2021/12/14 00:19:18;;;;;;;9.63;8.83;;;;;;;22.39;29.79;95351.53;4980450;28;103383;-49
2021/12/14 00:21:50;;;;;;;9.23;8.53;;;;;;;22.39;29.86;95346.97;4978290;28;102916;-49
2021/12/14 00:24:16;;;;;;;8.50;7.90;;;;;;;22.39;30.03;95357.63;4979248;28;103422;-49
2021/12/14 00:26:46;;;;;;;9.47;8.73;;;;;;;22.39;29.72;95362.16;4974954;28;103060;-49
2021/12/14 00:29:28;;;;;;;10.47;9.67;;;;;;;22.32;29.84;95349.22;4976517;28;102896;-50
2021/12/14 00:31:56;;;;;;;9.97;9.20;;;;;;;22.38;29.95;95361.38;4979139;28;103957;-49
2021/12/14 00:34:33;;;;;;;11.50;10.60;;;;;;;22.37;29.89;95357.13;4979367;28;102864;-49
2021/12/14 00:36:59;;;;;;;10.27;9.47;;;;;;;22.38;29.47;95366.72;4974066;28;104247;-49
2021/12/14 00:39:24;;;;;;;10.90;9.90;;;;;;;22.37;29.72;95365.13;4979604;28;102772;-49
2021/12/14 00:41:50;;;;;;;10.57;9.60;;;;;;;22.36;29.64;95366.22;4978768;28;103279;-49
2021/12/14 00:44:15;;;;;;;10.20;9.40;;;;;;;22.36;29.81;95371.53;4978983;28;102761;-50
2021/12/14 00:46:41;;;;;;;8.70;8.00;;;;;;;22.38;29.53;95363.25;4979023;28;102768;-50
2021/12/14 00:49:09;;;;;;;10.13;9.33;;;;;;;22.37;29.61;95367.00;4974503;28;102849;-50
2021/12/14 00:51:35;;;;;;;11.57;10.43;;;;;;;22.36;29.68;95365.41;4978446;28;102704;-50
2021/12/14 00:54:05;;;;;;;10.27;9.47;;;;;;;22.29;30.25;95357.00;4978294;28;102738;-49
2021/12/14 00:56:35;;;;;;;10.30;9.40;;;;;;;22.27;29.38;95354.66;4978497;28;102881;-49
2021/12/14 00:59:05;;;;;;;11.40;10.40;;;;;;;22.36;29.69;95373.41;4975020;28;104692;-49
2021/12/14 01:01:35;;;;;;;10.70;9.90;;;;;;;22.35;29.65;95367.28;4979005;28;102896;-50
2021/12/14 01:04:05;;;;;;;10.03;9.23;;;;;;;22.36;29.68;95373.41;4977850;28;103065;-50
2021/12/14 01:06:34;;;;;;;10.80;9.90;;;;;;;22.25;29.86;95356.81;4978159;28;102888;-49
2021/12/14 01:09:04;;;;;;;10.37;9.57;;;;;;;22.32;29.82;95370.53;4978638;28;102816;-49
2021/12/14 01:11:36;;;;;;;10.00;9.30;;;;;;;22.34;29.65;95367.56;4974040;28;103663;-49
2021/12/14 01:14:11;;;;;;;8.90;8.20;;;;;;;22.25;29.51;95354.16;4975541;28;103236;-49
2021/12/14 01:19:24;;;;;;;10.93;10.07;;;;;;;22.33;29.44;95363.31;4976348;28;102943;-49
2021/12/14 01:27:20;;;;;;;8.90;8.20;;;;;;;22.32;29.67;95361.75;4975433;28;102724;-49
2021/12/14 01:29:49;;;;;;;8.83;8.13;;;;;;;22.33;29.74;95368.66;4969795;28;102713;-50
2021/12/14 01:32:15;;;;;;;8.27;7.63;;;;;;;22.30;29.53;95359.38;4969286;28;103424;-50
2021/12/14 01:34:41;;;;;;;9.57;8.87;;;;;;;22.32;29.47;95365.19;4977995;28;102754;-49
2021/12/14 01:37:13;;;;;;;9.40;8.70;;;;;;;22.29;29.65;95357.78;4978698;28;102761;-49
2021/12/14 01:39:50;;;;;;;9.97;9.27;;;;;;;22.32;29.70;95367.06;4966114;28;102739;-49
2021/12/14 01:42:38;;;;;;;10.53;9.63;;;;;;;22.32;29.71;95362.53;4973238;28;103423;-49
2021/12/14 01:45:10;;;;;;;10.33;9.50;;;;;;;22.32;29.28;95362.53;4978682;28;102815;-49
2021/12/14 01:47:43;;;;;;;10.30;9.50;;;;;;;22.33;29.65;95369.44;4978154;28;102816;-49
2021/12/14 01:50:19;;;;;;;9.30;8.60;;;;;;;22.35;29.28;95364.63;4979132;28;103019;-49
2021/12/14 01:52:45;;;;;;;10.20;9.40;;;;;;;22.32;29.63;95362.53;4978115;28;103212;-49
2021/12/14 01:55:19;;;;;;;12.37;11.37;;;;;;;22.32;29.35;95361.75;4973675;28;102762;-49
2021/12/14 01:57:45;;;;;;;12.10;11.20;;;;;;;22.33;29.76;95364.13;4977582;28;102855;-49
2021/12/14 02:00:20;;;;;;;12.43;11.50;;;;;;;22.32;29.39;95359.09;4978374;28;103271;-49
2021/12/14 02:02:47;;;;;;;9.77;9.07;;;;;;;22.31;29.57;95366.28;4975321;28;103380;-49
2021/12/14 02:05:16;;;;;;;11.80;10.80;;;;;;;22.31;29.62;95365.50;4972134;28;102851;-49
2021/12/14 02:07:42;;;;;;;11.10;10.20;;;;;;;22.32;29.54;95361.75;4977922;28;102793;-49
2021/12/14 02:10:20;;;;;;;11.70;10.67;;;;;;;22.32;29.29;95361.75;4979912;28;102722;-47
2021/12/14 02:12:46;;;;;;;10.00;9.30;;;;;;;22.30;29.36;95359.38;4977723;28;103275;-49
2021/12/14 02:15:17;;;;;;;10.47;9.63;;;;;;;22.29;29.54;95360.47;4975695;28;103295;-49
2021/12/14 02:17:43;;;;;;;10.53;9.73;;;;;;;22.30;29.50;95354.06;4977979;28;103749;-49
2021/12/14 02:20:12;;;;;;;11.10;10.20;;;;;;;22.29;29.56;95363.13;4978661;28;102779;-49
2021/12/14 02:22:38;;;;;;;9.80;9.10;;;;;;;22.30;29.33;95355.94;4962069;28;103282;-49
2021/12/14 02:25:05;;;;;;;10.77;9.87;;;;;;;22.30;29.27;95359.38;4982038;28;103370;-49
2021/12/14 02:27:40;;;;;;;10.23;9.43;;;;;;;22.29;29.67;95357.78;4975244;28;102744;-49
2021/12/14 02:30:10;;;;;;;11.90;10.90;;;;;;;22.31;29.40;95370.81;4980701;28;102786;-49
2021/12/14 02:32:35;;;;;;;10.00;9.20;;;;;;;22.30;29.32;95355.94;4981050;28;103144;-49
2021/12/14 02:35:06;;;;;;;9.30;8.60;;;;;;;22.29;29.49;95360.47;4981127;28;103238;-49
2021/12/14 02:37:59;;;;;;;8.67;8.00;;;;;;;22.30;29.50;95363.91;4972885;28;102857;-49
2021/12/14 02:40:57;;;;;;;9.40;8.70;;;;;;;22.30;29.67;95372.69;4973319;28;102920;-49
2021/12/14 02:43:45;;;;;;;9.77;9.03;;;;;;;22.30;29.65;95372.69;4981055;28;102955;-49
2021/12/14 02:46:27;;;;;;;9.13;8.43;;;;;;;22.30;29.39;95367.38;4980284;28;103432;-49
2021/12/14 02:48:56;;;;;;;9.00;8.30;;;;;;;22.30;29.55;95367.38;4975432;28;102879;-50
2021/12/14 02:51:34;;;;;;;9.30;8.60;;;;;;;22.30;29.50;95370.03;4981281;28;102784;-50
2021/12/14 02:54:05;;;;;;;9.10;8.40;;;;;;;22.28;29.49;95361.53;4981058;28;103525;-50
2021/12/14 02:56:34;;;;;;;8.10;7.50;;;;;;;22.29;29.55;95362.34;4962328;28;104957;-49
2021/12/14 02:59:17;;;;;;;8.40;7.80;;;;;;;22.27;29.56;95359.19;4980335;28;102838;-49
2021/12/14 03:01:46;;;;;;;7.73;7.10;;;;;;;22.30;29.37;95369.25;4979439;28;102762;-49
2021/12/14 03:04:13;;;;;;;7.70;7.10;;;;;;;22.29;29.21;95365.78;4971272;28;103410;-49
2021/12/14 03:06:48;;;;;;;7.93;7.33;;;;;;;22.27;29.37;95361.84;4980571;28;102724;-48
2021/12/14 03:09:38;;;;;;;8.20;7.60;;;;;;;22.28;29.17;95372.19;4980311;28;102730;-48
2021/12/14 03:12:12;;;;;;;8.07;7.43;;;;;;;22.17;29.26;95349.47;4975527;28;102839;-48
2021/12/14 03:14:49;;;;;;;8.00;7.40;;;;;;;22.25;29.42;95367.47;4979958;28;103347;-48
2021/12/14 03:17:15;;;;;;;6.90;6.40;;;;;;;22.26;29.48;95365.59;4979250;28;103465;-48
2021/12/14 03:19:42;;;;;;;7.07;6.47;;;;;;;22.26;29.24;95369.03;4981196;28;102736;-48
2021/12/14 03:22:21;;;;;;;7.07;6.53;;;;;;;22.25;29.43;95370.13;4956606;28;102823;-48
2021/12/14 03:24:47;;;;;;;7.03;6.50;;;;;;;22.19;29.69;95368.63;4981387;28;102696;-48
2021/12/14 03:27:13;;;;;;;7.20;6.70;;;;;;;22.25;29.18;95382.63;4979798;28;102988;-48
2021/12/14 03:29:38;;;;;;;7.50;6.90;;;;;;;22.25;29.51;95372.78;4980673;28;102773;-48
2021/12/14 03:32:04;;;;;;;7.77;7.17;;;;;;;22.25;29.47;95380.75;4980860;28;102729;-48
2021/12/14 03:34:37;;;;;;;6.83;6.33;;;;;;;22.27;29.52;95385.78;4966759;28;103389;-48
2021/12/14 03:37:16;;;;;;;6.83;6.30;;;;;;;22.27;29.22;95386.59;4961202;28;102912;-48
2021/12/14 03:39:46;;;;;;;7.53;6.93;;;;;;;22.26;29.25;95379.69;4979607;28;103049;-48
2021/12/14 03:42:22;;;;;;;6.97;6.47;;;;;;;22.25;29.41;95379.97;4980576;28;102818;-48
2021/12/14 03:44:51;;;;;;;6.57;6.07;;;;;;;22.29;29.19;95386.28;4974534;28;103691;-48
2021/12/14 03:47:25;;;;;;;7.10;6.57;;;;;;;22.27;29.35;95388.47;4980024;28;102758;-48
2021/12/14 03:49:58;;;;;;;6.60;6.10;;;;;;;22.30;28.96;95383.34;4963170;28;102885;-48
2021/12/14 03:52:28;;;;;;;7.10;6.57;;;;;;;22.28;29.06;95380.19;4980220;28;102740;-48
2021/12/14 03:54:55;;;;;;;6.37;5.87;;;;;;;22.29;29.31;95379.09;4974769;28;103349;-48
2021/12/14 03:57:21;;;;;;;7.00;6.50;;;;;;;22.30;29.57;95391.31;4979896;28;102962;-48
2021/12/14 03:59:47;;;;;;;6.33;5.93;;;;;;;22.30;29.12;95386.00;4979478;28;102757;-48
2021/12/14 04:02:16;;;;;;;6.47;5.97;;;;;;;22.23;29.35;95382.13;4980180;28;103400;-48
2021/12/14 04:04:52;;;;;;;6.37;5.87;;;;;;;22.30;29.24;95391.31;4978180;28;102801;-48
2021/12/14 04:07:19;;;;;;;6.97;6.43;;;;;;;22.35;29.21;95396.56;4974196;28;103962;-48
2021/12/14 04:09:44;;;;;;;6.00;5.50;;;;;;;22.32;29.57;95399.00;4979335;28;103421;-48
2021/12/14 04:12:14;;;;;;;6.07;5.17;;;;;;;22.29;29.55;95403.06;4980406;28;102740;-48
2021/12/14 04:14:42;;;;;;;5.20;4.70;;;;;;;22.26;29.26;95400.97;4979746;28;102941;-48
2021/12/14 04:17:09;;;;;;;4.83;4.50;;;;;;;22.24;28.84;95397.81;4975417;28;102657;-48
2021/12/14 04:19:36;;;;;;;4.73;4.33;;;;;;;22.12;28.71;95389.50;4979651;28;102843;-48
2021/12/14 04:22:07;;;;;;;5.20;4.70;;;;;;;22.18;29.03;95406.97;4979409;28;102587;-48
2021/12/14 04:24:36;;;;;;;4.77;4.37;;;;;;;22.15;28.58;95410.19;4980082;28;103232;-48
2021/12/14 04:27:07;;;;;;;4.60;4.30;;;;;;;22.14;28.62;95405.94;4978700;28;104286;-48
2021/12/14 04:29:33;;;;;;;4.20;3.90;;;;;;;22.15;27.97;95395.00;4954499;28;103290;-48
2021/12/14 04:32:00;;;;;;;4.57;4.17;;;;;;;22.46;28.60;95411.28;4966450;28;102791;-48
2021/12/14 04:34:29;;;;;;;4.37;4.07;;;;;;;22.56;28.29;95406.88;4980123;28;103246;-48
2021/12/14 04:36:55;;;;;;;3.90;3.70;;;;;;;22.63;28.16;95409.94;4979839;28;102848;-48
2021/12/14 04:53:11;;;;;;;4.67;4.33;;;;;;;22.33;28.29;95411.22;4977316;28;102886;-48
2021/12/14 04:55:39;;;;;;;4.57;4.17;;;;;;;22.18;27.94;95407.75;4978939;28;103286;-48
2021/12/14 04:58:05;;;;;;;4.53;4.13;;;;;;;22.17;27.90;95418.66;4959422;28;103485;-48
2021/12/14 05:00:34;;;;;;;3.97;3.67;;;;;;;22.12;27.39;95416.09;4971295;28;102876;-48
2021/12/14 05:03:02;;;;;;;5.87;3.97;;;;;;;22.29;27.54;95416.34;4968726;28;103087;-48
2021/12/14 05:05:32;;;;;;;4.10;3.80;;;;;;;22.42;28.16;95420.16;4969259;28;102712;-48
2021/12/14 05:11:08;;;;;;;4.03;3.63;;;;;;;22.52;28.95;95431.44;4974961;28;103068;-47
2021/12/14 05:13:37;;;;;;;5.07;4.73;;;;;;;22.25;28.72;95426.00;4968184;28;103042;-51
2021/12/14 05:16:04;;;;;;;5.20;4.80;;;;;;;22.09;28.50;95422.78;4977703;28;102686;-47
2021/12/14 05:18:30;;;;;;;5.23;4.83;;;;;;;21.79;28.23;95421.34;4976552;28;104635;-47
2021/12/14 05:20:58;;;;;;;4.60;4.20;;;;;;;21.71;27.92;95414.03;4976823;28;102708;-47
2021/12/14 05:23:30;;;;;;;4.83;4.33;;;;;;;21.86;28.50;95403.16;4974113;28;103303;-49
2021/12/14 05:25:58;;;;;;;5.70;4.60;;;;;;;22.04;28.53;95414.09;4976393;28;103605;-48
2021/12/14 05:28:26;;;;;;;5.37;4.50;;;;;;;22.12;28.64;95427.53;4976630;28;103361;-48
2021/12/14 05:30:56;;;;;;;6.00;4.43;;;;;;;22.06;28.31;95404.75;4978263;28;102918;-48
2021/12/14 05:33:29;;;;;;;4.87;4.00;;;;;;;22.11;28.59;95420.63;4976784;28;102701;-48
2021/12/14 05:35:59;;;;;;;4.40;4.10;;;;;;;22.16;28.60;95422.41;4939658;28;104661;-48
2021/12/14 05:38:41;;;;;;;4.10;3.80;;;;;;;22.17;28.64;95432.81;4976739;28;102767;-48
2021/12/14 05:43:54;;;;;;;4.00;3.67;;;;;;;22.29;28.46;95427.00;4976701;28;102828;-48
2021/12/14 05:46:22;;;;;;;4.30;3.90;;;;;;;22.30;28.27;95425.13;4971545;28;102942;-48
2021/12/14 05:48:48;;;;;;;3.90;3.63;;;;;;;22.27;28.45;95434.50;4978135;28;103376;-48
2021/12/14 05:51:13;;;;;;;4.37;4.07;;;;;;;22.21;28.13;95425.03;4978256;28;102730;-48
2021/12/14 05:53:44;;;;;;;3.53;3.33;;;;;;;22.30;28.72;95439.22;4978343;28;102681;-48
2021/12/14 05:56:19;;;;;;;3.27;2.97;;;;;;;22.31;28.39;95445.34;4974165;28;103467;-48
2021/12/14 05:58:46;;;;;;;4.03;3.73;;;;;;;22.30;28.70;95452.53;4981471;28;102777;-48
2021/12/14 06:01:17;;;;;;;4.10;3.80;;;;;;;22.33;28.67;95448.50;4982035;28;102883;-47
2021/12/14 06:03:53;;;;;;;3.80;3.50;;;;;;;22.32;28.78;95446.91;4982693;28;102798;-48
2021/12/14 06:06:22;;;;;;;4.50;4.10;;;;;;;22.28;28.93;95449.38;4980688;28;103294;-48
2021/12/14 06:08:48;;;;;;;3.60;3.40;;;;;;;22.27;28.64;95450.47;4978912;28;103005;-48
2021/12/14 06:11:26;;;;;;;3.70;3.43;;;;;;;22.33;28.71;95457.28;4980772;28;102845;-48
2021/12/14 06:13:52;;;;;;;3.93;3.63;;;;;;;22.30;28.81;95457.88;4982248;28;103304;-48
2021/12/14 06:16:33;;;;;;;3.43;3.23;;;;;;;22.33;28.70;95461.81;4981742;28;102897;-48
2021/12/14 06:19:17;;;;;;;3.83;3.63;;;;;;;22.34;28.36;95460.72;4975792;28;103278;-48
2021/12/14 06:21:44;;;;;;;4.10;3.80;;;;;;;22.33;29.04;95464.47;4982319;28;103514;-48
2021/12/14 06:24:11;;;;;;;4.20;3.80;;;;;;;22.35;28.70;95465.78;4982109;28;102843;-48
2021/12/14 06:26:49;;;;;;;4.13;3.73;;;;;;;22.35;28.84;95473.78;4980359;28;103142;-48
2021/12/14 06:29:21;;;;;;;3.80;3.60;;;;;;;22.35;28.41;95471.13;4976700;28;104903;-47
2021/12/14 06:31:47;;;;;;;4.17;3.87;;;;;;;22.35;28.85;95465.78;4981107;28;102717;-48
2021/12/14 06:34:28;;;;;;;3.77;3.47;;;;;;;22.36;28.91;95470.03;4980791;28;102947;-48
2021/12/14 06:40:16;;;;;;;3.90;3.70;;;;;;;22.38;28.91;95478.53;4954286;28;104414;-48
2021/12/14 06:42:54;;;;;;;4.77;4.47;;;;;;;22.33;28.90;95475.91;4981059;28;102914;-48
2021/12/14 06:45:31;;;;;;;4.23;3.93;;;;;;;22.39;28.44;95482.75;4981905;28;102933;-48
2021/12/14 06:48:04;;;;;;;4.60;4.30;;;;;;;22.38;28.67;95496.38;4981277;28;103172;-48
2021/12/14 06:50:43;;;;;;;4.70;4.40;;;;;;;22.38;28.91;95494.50;4975953;28;103237;-48
2021/12/14 06:53:12;;;;;;;4.60;4.30;;;;;;;22.38;28.86;95497.16;4981062;28;102834;-48
2021/12/14 06:55:38;;;;;;;4.20;3.90;;;;;;;22.38;28.86;95496.38;4981568;28;102818;-48
2021/12/14 06:58:16;;;;;;;4.90;4.60;;;;;;;22.38;28.96;95499.03;4981094;28;103250;-48
2021/12/14 07:00:50;;;;;;;5.07;4.67;;;;;;;22.39;28.81;95503.28;4981012;28;102714;-48
2021/12/14 07:03:17;;;;;;;4.23;3.93;;;;;;;22.38;28.94;95509.69;4973383;28;102952;-48
2021/12/14 07:05:46;;;;;;;4.60;4.20;;;;;;;22.33;28.79;95494.53;4981625;28;102657;-48
2021/12/14 07:08:17;;;;;;;4.90;4.60;;;;;;;22.39;28.98;95505.94;4980205;28;102960;-48
2021/12/14 07:10:44;;;;;;;4.33;3.90;;;;;;;22.39;28.88;95508.59;4979414;28;102686;-48
2021/12/14 07:13:20;;;;;;;4.43;4.13;;;;;;;22.38;29.17;95507.81;4975897;28;102930;-48
2021/12/14 07:15:47;;;;;;;4.27;3.97;;;;;;;22.39;28.82;95511.25;4981415;28;102720;-48
2021/12/14 07:18:13;;;;;;;4.87;4.57;;;;;;;22.39;28.79;95512.03;4979771;28;103062;-48
2021/12/14 07:20:49;;;;;;;4.90;4.50;;;;;;;22.39;28.99;95512.03;4980895;28;103382;-48
2021/12/14 07:23:20;;;;;;;4.70;4.40;;;;;;;22.40;29.04;95518.16;4980418;28;103058;-47
2021/12/14 07:25:54;;;;;;;5.20;4.80;;;;;;;22.33;29.17;95507.84;4975785;28;103073;-48
2021/12/14 07:28:20;;;;;;;5.67;5.17;;;;;;;22.40;29.02;95515.50;4980388;28;103352;-48
2021/12/14 07:30:49;;;;;;;5.37;4.87;;;;;;;22.40;28.62;95513.63;4981183;28;103468;-48
2021/12/14 07:33:28;;;;;;;4.40;4.10;;;;;;;22.40;28.82;95521.63;4979838;28;103118;-48
2021/12/14 07:36:04;;;;;;;5.30;4.90;;;;;;;22.40;28.82;95526.94;4975369;28;102942;-48
2021/12/14 07:38:40;;;;;;;4.63;4.33;;;;;;;22.40;29.35;95524.28;4979734;28;102587;-48
2021/12/14 07:41:23;;;;;;;4.87;4.53;;;;;;;22.41;28.92;95528.50;4980213;28;103250;-48
2021/12/14 07:43:54;;;;;;;4.83;4.50;;;;;;;22.41;28.80;95527.72;4981046;28;103200;-48
2021/12/14 07:46:31;;;;;;;4.70;4.40;;;;;;;22.41;28.74;95533.84;4975507;28;103061;-48
2021/12/14 07:49:01;;;;;;;5.60;5.20;;;;;;;22.41;28.92;95538.38;4980035;28;102676;-48
2021/12/14 07:51:29;;;;;;;5.40;5.00;;;;;;;22.39;28.76;95528.03;4980025;28;102828;-48
2021/12/14 07:54:04;;;;;;;5.57;5.17;;;;;;;22.41;28.72;95536.50;4979613;28;102936;-48
2021/12/14 07:56:43;;;;;;;5.17;4.77;;;;;;;22.42;28.81;95538.09;4978433;28;102776;-48
2021/12/14 07:59:29;;;;;;;5.43;5.03;;;;;;;22.42;29.01;95545.28;4980562;28;102956;-48
2021/12/14 08:02:17;;;;;;;5.23;4.83;;;;;;;22.35;28.91;95532.34;4980657;28;102753;-48
2021/12/14 08:04:50;;;;;;;6.17;5.70;;;;;;;22.41;29.21;95533.06;4980311;28;102740;-50
2021/12/14 08:07:29;;;;;;;5.77;5.37;;;;;;;22.62;28.73;95554.84;4981543;28;102708;-50
2021/12/14 08:10:07;;;;;;;5.50;5.10;;;;;;;22.66;29.03;95553.16;4975852;28;102673;-50
2021/12/14 08:12:55;;;;;;;5.57;5.17;;;;;;;22.70;29.02;95554.97;4979608;28;102830;-50
2021/12/14 08:15:29;;;;;;;5.57;5.17;;;;;;;22.73;29.21;95556.28;4980404;28;102568;-50
2021/12/14 08:18:09;;;;;;;5.37;4.97;;;;;;;22.75;28.84;95554.88;4980011;28;102820;-50
2021/12/14 08:20:53;;;;;;;5.00;4.60;;;;;;;22.78;28.69;95556.19;4973430;28;102722;-50
2021/12/14 08:23:19;;;;;;;5.90;5.40;;;;;;;22.77;29.17;95559.94;4979499;28;102741;-50
2021/12/14 08:25:44;;;;;;;5.37;4.97;;;;;;;22.75;29.27;95557.56;4979790;28;102812;-50
2021/12/14 08:28:12;;;;;;;5.60;5.20;;;;;;;22.75;28.89;95556.75;4980332;28;102722;-50
2021/12/14 08:30:43;;;;;;;5.13;4.77;;;;;;;22.71;29.23;95561.09;4974273;28;102883;-50
2021/12/14 08:33:23;;;;;;;5.40;5.00;;;;;;;22.69;29.11;95556.06;4979372;28;104560;-50
2021/12/14 08:35:49;;;;;;;6.00;5.50;;;;;;;22.62;29.05;95546.84;4979992;28;103109;-50
2021/12/14 08:38:18;;;;;;;5.90;5.50;;;;;;;22.66;28.76;95550.50;4980573;28;102808;-50
2021/12/14 08:40:51;;;;;;;6.13;5.63;;;;;;;22.66;29.22;95547.84;4974007;28;103438;-50
2021/12/14 08:43:26;;;;;;;6.10;5.37;;;;;;;22.65;29.15;95547.06;4978805;28;103685;-50
2021/12/14 08:45:57;;;;;;;5.30;4.90;;;;;;;22.65;28.94;95541.72;4979000;28;102724;-50
2021/12/14 08:48:46;;;;;;;6.40;5.90;;;;;;;22.64;29.15;95545.47;4979024;28;102735;-50
2021/12/14 08:51:14;;;;;;;5.80;5.40;;;;;;;22.65;28.77;95549.72;4979616;28;102687;-50
2021/12/14 08:53:56;;;;;;;6.43;5.87;;;;;;;22.64;29.12;95544.69;4973702;28;102734;-50
2021/12/14 08:56:24;;;;;;;6.23;5.73;;;;;;;22.65;29.01;95551.59;4978737;28;103052;-50
2021/12/14 08:58:50;;;;;;;6.50;5.90;;;;;;;22.65;29.04;95539.06;4979929;28;102732;-50
2021/12/14 09:01:26;;;;;;;6.57;6.07;;;;;;;22.66;28.59;95534.53;4978126;28;102685;-50
2021/12/14 09:04:03;;;;;;;7.43;6.63;;;;;;;22.65;28.79;95535.59;4972636;28;104064;-50
2021/12/14 09:06:32;;;;;;;6.77;6.27;;;;;;;22.66;29.04;95542.50;4979557;28;102857;-50
2021/12/14 09:09:02;;;;;;;6.37;5.97;;;;;;;22.67;28.48;95534.22;4978613;28;102747;-50
2021/12/14 09:11:32;;;;;;;6.50;6.00;;;;;;;22.67;28.76;95533.44;4977650;28;103333;-50
2021/12/14 09:13:59;;;;;;;5.87;5.40;;;;;;;22.59;28.73;95518.94;4974189;28;102870;-50
2021/12/14 09:16:29;;;;;;;6.90;6.40;;;;;;;22.68;28.63;95529.72;4978618;28;103193;-50
2021/12/14 09:19:02;;;;;;;7.13;6.53;;;;;;;22.70;28.88;95530.22;4979688;28;103027;-50
2021/12/14 09:21:38;;;;;;;6.97;6.40;;;;;;;22.69;28.90;95528.63;4978718;28;102851;-50
2021/12/14 09:24:09;;;;;;;6.60;6.10;;;;;;;22.69;29.16;95520.66;4978785;28;103273;-50
2021/12/14 09:26:37;;;;;;;7.17;6.57;;;;;;;22.70;28.76;95522.22;4973377;28;102846;-50
2021/12/14 09:29:08;;;;;;;7.37;6.87;;;;;;;22.70;28.46;95514.25;4979651;28;103187;-50
2021/12/14 09:31:37;;;;;;;7.40;6.80;;;;;;;22.73;28.84;95518.97;4978231;28;102708;-50
2021/12/14 09:34:04;;;;;;;7.37;6.77;;;;;;;22.72;28.81;95504.88;4978811;28;102752;-50
2021/12/14 09:36:31;;;;;;;7.70;7.00;;;;;;;22.73;28.77;95511.00;4972870;28;102839;-50
2021/12/14 09:39:10;;;;;;;7.40;6.90;;;;;;;22.72;28.84;95506.75;4978557;28;103041;-50
2021/12/14 09:41:37;;;;;;;7.27;6.77;;;;;;;22.72;28.84;95504.09;4978795;28;102754;-50
2021/12/14 09:44:06;;;;;;;6.20;5.80;;;;;;;22.75;28.66;95511.47;4978950;28;103498;-50
2021/12/14 09:46:32;;;;;;;6.97;6.47;;;;;;;22.75;28.62;95504.28;4978319;28;102782;-50
2021/12/14 09:49:05;;;;;;;6.57;6.07;;;;;;;22.69;28.66;95496.69;4974156;28;103319;-50
2021/12/14 09:51:44;;;;;;;6.53;6.00;;;;;;;22.69;28.61;95494.81;4978939;28;103150;-50
2021/12/14 09:54:14;;;;;;;7.20;6.70;;;;;;;22.71;28.92;95505.16;4962375;28;102663;-50
2021/12/14 09:56:45;;;;;;;6.40;6.00;;;;;;;22.71;28.45;95494.50;4978366;28;103227;-50
2021/12/14 09:59:12;;;;;;;6.97;6.47;;;;;;;22.72;28.82;95493.44;4974220;28;103235;-50
2021/12/14 10:01:47;;;;;;;7.07;6.47;;;;;;;22.72;28.53;95499.53;4977335;28;102719;-50
2021/12/14 10:04:20;;;;;;;7.40;6.83;;;;;;;22.73;28.91;95495.00;4978424;28;103511;-50
2021/12/14 10:06:49;;;;;;;8.20;7.60;;;;;;;22.73;28.44;95495.00;4978808;28;102720;-50
2021/12/14 10:09:20;;;;;;;8.87;8.07;;;;;;;22.73;28.71;95495.78;4972331;28;103193;-50
2021/12/14 10:14:26;;;;;;;8.43;7.73;;;;;;;22.75;28.41;95500.81;4978291;28;104634;-50
2021/12/14 10:16:52;;;;;;;8.83;8.07;;;;;;;22.74;28.39;95491.25;4977473;28;102822;-50
2021/12/14 10:19:22;;;;;;;9.20;8.50;;;;;;;22.75;28.61;95492.84;4978782;28;102768;-50
2021/12/14 10:21:55;;;;;;;9.57;8.70;;;;;;;22.75;28.23;95487.50;4973021;28;103285;-50
2021/12/14 10:24:21;;;;;;;8.60;8.00;;;;;;;22.67;28.53;95477.50;4977580;28;103323;-50
2021/12/14 10:26:54;;;;;;;9.23;8.57;;;;;;;22.71;28.67;95481.19;4978074;28;103282;-50
2021/12/14 10:29:20;;;;;;;9.57;8.77;;;;;;;22.76;28.53;95486.41;4978628;28;102811;-50
2021/12/14 10:31:51;;;;;;;9.03;8.23;;;;;;;22.76;28.50;95483.75;4972791;28;103832;-50
2021/12/14 10:34:24;;;;;;;9.53;8.80;;;;;;;22.76;28.65;95489.09;4977938;28;103310;-50
2021/12/14 10:36:59;;;;;;;9.90;9.20;;;;;;;22.72;28.76;95478.22;4978202;28;103542;-50
2021/12/14 10:39:39;;;;;;;11.80;10.80;;;;;;;22.76;28.65;95489.88;4977404;28;102823;-50
2021/12/14 10:44:59;;;;;;;10.23;9.43;;;;;;;22.76;28.66;95486.41;4979001;28;103299;-50
2021/12/14 10:47:29;;;;;;;10.70;9.80;;;;;;;22.75;28.82;95482.97;4979833;28;102814;-50
2021/12/14 10:49:56;;;;;;;9.77;8.97;;;;;;;22.70;28.92;95468.97;4981479;28;102802;-50
2021/12/14 10:52:25;;;;;;;10.57;9.70;;;;;;;22.75;28.92;95480.31;4980786;28;102925;-50
2021/12/14 10:54:56;;;;;;;11.60;10.70;;;;;;;22.75;28.43;95474.97;4956494;28;102730;-50
2021/12/14 10:57:29;;;;;;;10.67;9.77;;;;;;;22.73;28.56;95484.34;4981547;28;103303;-50
2021/12/14 10:59:57;;;;;;;10.97;10.17;;;;;;;22.77;28.56;95485.34;4981009;28;102845;-50
2021/12/14 11:02:25;;;;;;;11.70;10.80;;;;;;;22.72;28.76;95472.91;4981199;28;103189;-50
2021/12/14 11:04:58;;;;;;;11.17;10.27;;;;;;;22.71;28.82;95467.88;4974981;28;102757;-50
2021/12/14 11:07:38;;;;;;;10.60;9.80;;;;;;;22.75;28.74;95476.84;4980735;28;103499;-50
2021/12/14 11:10:14;;;;;;;12.03;11.03;;;;;;;22.74;28.70;95469.94;4980735;28;102862;-50
2021/12/14 11:12:43;;;;;;;11.63;10.73;;;;;;;22.74;29.16;95472.59;4981074;28;103459;-50
2021/12/14 11:15:15;;;;;;;11.60;10.70;;;;;;;22.75;28.98;95466.19;4975529;28;103195;-50
2021/12/14 11:20:34;;;;;;;13.80;12.60;;;;;;;22.69;28.92;95456.72;4981571;28;103025;-50
2021/12/14 11:23:05;;;;;;;11.93;11.03;;;;;;;22.72;28.91;95456.91;4980353;28;103391;-50
2021/12/14 11:25:34;;;;;;;12.17;11.27;;;;;;;22.74;28.92;95459.28;4979518;28;103666;-50
2021/12/14 11:28:07;;;;;;;12.20;11.30;;;;;;;22.74;28.67;95461.94;4975731;28;103013;-50
2021/12/14 11:30:38;;;;;;;12.77;11.77;;;;;;;22.73;28.81;95457.72;4980334;28;102731;-50
2021/12/14 11:33:22;;;;;;;12.07;11.23;;;;;;;22.71;28.92;95457.22;4980133;28;103423;-50
2021/12/14 11:36:10;;;;;;;12.97;11.87;;;;;;;22.73;28.99;95461.16;4981136;28;102709;-50
2021/12/14 11:38:38;;;;;;;13.60;12.50;;;;;;;22.74;29.14;95452.09;4973882;28;102953;-50
2021/12/14 11:41:36;;;;;;;13.07;12.00;;;;;;;22.72;28.72;95453.47;4980036;28;103362;-50
2021/12/14 11:44:14;;;;;;;14.03;12.83;;;;;;;22.74;29.17;95454.75;4978920;28;102863;-50
2021/12/14 11:47:08;;;;;;;12.77;11.70;;;;;;;22.74;29.02;95459.28;4980066;28;103394;-50
2021/12/14 11:50:09;;;;;;;14.03;12.93;;;;;;;22.74;29.15;95451.31;4976011;28;103437;-50
2021/12/14 11:52:52;;;;;;;14.20;12.90;;;;;;;22.73;29.05;95444.41;4966578;28;103475;-50
2021/12/14 11:55:40;;;;;;;13.80;12.70;;;;;;;22.73;28.92;95453.19;4980317;28;104449;-50
2021/12/14 11:58:30;;;;;;;14.10;13.00;;;;;;;22.83;28.89;95451.44;4980657;28;104628;-49
2021/12/14 12:00:56;;;;;;;14.37;13.20;;;;;;;22.87;28.78;95445.25;4956544;28;103478;-49
2021/12/14 12:03:39;;;;;;;15.37;14.07;;;;;;;22.88;29.30;95449.47;4979698;28;103312;-49
2021/12/14 12:06:32;;;;;;;16.53;15.20;;;;;;;22.88;29.44;95438.03;4978984;28;102963;-49
2021/12/14 12:11:46;;;;;;;16.57;15.20;;;;;;;22.95;29.22;95449.09;4973828;28;102712;-49
2021/12/14 12:14:28;;;;;;;18.10;16.60;;;;;;;22.98;28.88;95451.16;4980035;28;103227;-50
2021/12/14 12:16:59;;;;;;;18.17;16.60;;;;;;;22.96;29.32;95445.34;4980024;28;102871;-50
2021/12/14 12:19:29;;;;;;;17.43;16.03;;;;;;;22.96;29.69;95448.78;4980126;28;102887;-49
2021/12/14 12:21:55;;;;;;;18.30;16.80;;;;;;;22.94;29.56;95447.50;4973924;28;102882;-49
2021/12/14 12:24:40;;;;;;;17.83;16.43;;;;;;;22.97;29.41;95445.03;4980027;28;102807;-49
2021/12/14 12:27:15;;;;;;;21.63;19.83;;;;;;;22.94;29.59;95431.53;4980063;28;103398;-50
2021/12/14 12:29:41;;;;;;;19.30;17.63;;;;;;;22.98;29.90;95437.84;4979577;28;102794;-49
2021/12/14 12:32:17;;;;;;;21.07;19.30;;;;;;;22.99;29.75;95442.88;4975242;28;104530;-54